Time;durP1;ratioP1;P1;durP2;ratioP2;P2;SDS_P1;SDS_P2;PMS_P1;PMS_P2;Temp;Humidity;BMP_temperature;BMP_pressure;BME280_temperature;BME280_humidity;BME280_pressure;Samples;Min_cycle;Max_cycle;Signal;HPM_P1;HPM_P2
2022/03/15 05:15:48;;;;;;;;;;;;;;;6.29;100.00;100107.06;5567471;24;20002;-70
2022/03/15 05:18:16;;;;;;;;;;;;;;;6.30;100.00;100104.00;4844381;29;19960;-70
2022/03/15 05:20:43;;;;;;;;;;;;;;;6.30;100.00;100104.00;4844487;29;19956;-70
2022/03/15 05:23:10;;;;;;;;;;;;;;;6.37;100.00;100111.84;4845561;29;19958;-70
2022/03/15 05:25:38;;;;;;;;;;;;;;;6.36;100.00;100111.00;4843892;29;19957;-71
2022/03/15 05:28:09;;;;;;;;;;;;;;;6.32;100.00;100109.22;4846274;29;19963;-71
2022/03/15 05:30:37;;;;;;;;;;;;;;;6.29;100.00;100110.69;4845439;29;19958;-70
2022/03/15 05:33:04;;;;;;;;;;;;;;;6.30;100.00;100105.94;4845635;29;20436;-71
2022/03/15 05:35:33;;;;;;;;;;;;;;;6.35;100.00;100101.06;4846170;29;19955;-70
2022/03/15 05:38:02;;;;;;;;;;;;;;;6.34;100.00;100109.69;4845922;29;19953;-70
2022/03/15 05:40:30;;;;;;;;;;;;;;;6.36;100.00;100116.56;4845743;29;20333;-70
2022/03/15 05:42:58;;;;;;;;;;;;;;;6.35;100.00;100116.91;4844741;29;19961;-70
2022/03/15 05:45:26;;;;;;;;;;;;;;;6.32;100.00;100110.03;4846276;29;20221;-70
2022/03/15 05:47:53;;;;;;;;;;;;;;;6.34;100.00;100118.03;4844635;29;19955;-70
2022/03/15 05:50:21;;;;;;;;;;;;;;;6.30;100.00;100114.28;4845430;29;19965;-70
2022/03/15 05:52:49;;;;;;;;;;;;;;;6.34;100.00;100115.25;4846034;29;19972;-70
2022/03/15 05:55:16;;;;;;;;;;;;;;;6.32;100.00;100112.00;4845381;29;20341;-70
2022/03/15 05:57:44;;;;;;;;;;;;;;;6.29;100.00;100120.97;4845785;29;19953;-70
2022/03/15 06:00:11;;;;;;;;;;;;;;;6.28;100.00;100122.13;4845859;29;19949;-70
2022/03/15 06:02:39;;;;;;;;;;;;;;;6.28;100.00;100131.28;4845806;29;20351;-70
2022/03/15 06:05:07;;;;;;;;;;;;;;;6.27;100.00;100132.41;4832297;29;19950;-70
2022/03/15 06:07:42;;;;;;;;;;;;;;;6.32;100.00;100137.00;4826868;29;19959;-70
2022/03/15 06:10:09;;;;;;;;;;;;;;;6.35;100.00;100131.63;4827499;29;19947;-70
2022/03/15 06:12:45;;;;;;;;;;;;;;;6.40;100.00;100138.97;5120577;27;19998;-70
2022/03/15 06:15:16;;;;;;;;;;;;;;;6.45;100.00;100133.25;5107147;28;19951;-70
2022/03/15 06:17:44;;;;;;;;;;;;;;;6.48;100.00;100136.19;5094413;28;19947;-70
2022/03/15 06:20:14;;;;;;;;;;;;;;;6.50;100.00;100141.44;5114136;28;19953;-70
2022/03/15 06:22:46;;;;;;;;;;;;;;;6.55;100.00;100144.84;5113460;28;19953;-68
2022/03/15 06:25:14;;;;;;;;;;;;;;;6.63;100.00;100144.03;5110233;28;19952;-70
2022/03/15 06:27:43;;;;;;;;;;;;;;;6.66;100.00;100148.13;5109306;27;19948;-70
2022/03/15 06:30:12;;;;;;;;;;;;;;;6.71;100.00;100150.75;5113755;28;19959;-70
2022/03/15 06:32:39;;;;;;;;;;;;;;;6.73;100.00;100154.00;5113806;28;19962;-70
2022/03/15 06:35:07;;;;;;;;;;;;;;;6.78;100.00;100147.47;5113341;28;19950;-70
2022/03/15 06:37:36;;;;;;;;;;;;;;;6.82;100.00;100146.50;5113507;28;19954;-70
2022/03/15 06:40:08;;;;;;;;;;;;;;;6.84;100.00;100151.72;5104151;28;19955;-68
2022/03/15 06:42:38;;;;;;;;;;;;;;;6.87;100.00;100151.09;5113512;28;19953;-70
2022/03/15 06:45:06;;;;;;;;;;;;;;;6.87;100.00;100165.78;5105499;28;20317;-70
2022/03/15 06:47:37;;;;;;;;;;;;;;;6.91;100.00;100166.78;5112103;28;19957;-70
2022/03/15 06:50:07;;;;;;;;;;;;;;;6.95;100.00;100173.31;5108784;28;19955;-70
2022/03/15 06:52:35;;;;;;;;;;;;;;;6.98;100.00;100174.63;5112074;28;20347;-70
2022/03/15 06:55:03;;;;;;;;;;;;;;;6.99;100.00;100174.28;5112001;28;19943;-70
2022/03/15 06:57:32;;;;;;;;;;;;;;;7.00;100.00;100173.13;5104516;28;19954;-70
2022/03/15 07:00:00;;;;;;;;;;;;;;;6.97;100.00;100176.56;5110813;28;19946;-70
2022/03/15 07:02:27;;;;;;;;;;;;;;;7.00;100.00;100175.91;5110519;28;19953;-70
2022/03/15 07:04:55;;;;;;;;;;;;;;;7.00;100.00;100175.09;5108868;28;20551;-70
2022/03/15 07:07:23;;;;;;;;;;;;;;;7.00;100.00;100167.56;5106158;28;19945;-70
2022/03/15 07:09:50;;;;;;;;;;;;;;;7.03;100.00;100166.09;5110933;28;20209;-70
2022/03/15 07:12:19;;;;;;;;;;;;;;;7.05;100.00;100172.97;5113072;28;19976;-70
2022/03/15 07:14:47;;;;;;;;;;;;;;;7.01;100.00;100194.25;5107912;28;20222;-70
2022/03/15 07:17:14;;;;;;;;;;;;;;;7.00;100.00;100191.78;5111496;28;19969;-70
2022/03/15 07:19:44;;;;;;;;;;;;;;;7.04;100.00;100187.22;5112108;28;19951;-70
2022/03/15 07:22:11;;;;;;;;;;;;;;;7.06;100.00;100196.03;5109931;28;19949;-70
2022/03/15 07:24:39;;;;;;;;;;;;;;;7.10;100.00;100197.00;5098474;28;19951;-70
2022/03/15 07:27:06;;;;;;;;;;;;;;;7.09;100.00;100192.63;5098655;28;19950;-70
2022/03/15 07:29:34;;;;;;;;;;;;;;;7.11;100.00;100193.94;5098360;28;19960;-70
2022/03/15 07:32:02;;;;;;;;;;;;;;;7.13;100.00;100199.16;5097083;28;19970;-70
2022/03/15 07:34:29;;;;;;;;;;;;;;;7.16;100.00;100199.28;5098675;28;19946;-70
2022/03/15 07:36:56;;;;;;;;;;;;;;;7.21;100.00;100196.34;5097680;28;19959;-70
2022/03/15 07:39:24;;;;;;;;;;;;;;;7.25;100.00;100189.00;5095719;28;19963;-70
2022/03/15 07:41:53;;;;;;;;;;;;;;;7.27;100.00;100194.22;5094312;28;20296;-70
2022/03/15 07:44:21;;;;;;;;;;;;;;;7.31;100.00;100188.81;5095626;28;20346;-70
2022/03/15 07:46:48;;;;;;;;;;;;;;;7.38;100.00;100187.16;5097342;28;19953;-70
2022/03/15 07:49:17;;;;;;;;;;;;;;;7.42;100.00;100195.66;5096666;28;20343;-70
2022/03/15 07:51:45;;;;;;;;;;;;;;;7.43;100.00;100192.56;5076674;28;19963;-70
2022/03/15 07:54:12;;;;;;;;;;;;;;;7.47;100.00;100198.25;5095703;28;20334;-71
2022/03/15 07:56:41;;;;;;;;;;;;;;;7.56;100.00;100193.47;5087483;28;19952;-70
2022/03/15 07:59:10;;;;;;;;;;;;;;;7.64;100.00;100196.25;5078677;28;19947;-70
2022/03/15 08:01:38;;;;;;;;;;;;;;;7.70;100.00;100200.47;5080344;28;19953;-70
2022/03/15 08:04:06;;;;;;;;;;;;;;;7.76;100.00;100198.34;5094525;28;19950;-70
2022/03/15 08:06:35;;;;;;;;;;;;;;;7.74;100.00;100195.91;5095374;28;19947;-71
2022/03/15 08:09:03;;;;;;;;;;;;;;;7.86;100.00;100197.97;5104158;28;20330;-70
2022/03/15 08:11:31;;;;;;;;;;;;;;;7.93;100.00;100195.47;5099845;28;19985;-70
2022/03/15 08:13:58;;;;;;;;;;;;;;;8.01;100.00;100193.81;5093700;28;19964;-69
2022/03/15 08:16:26;;;;;;;;;;;;;;;8.05;100.00;100200.34;5096669;28;19951;-70
2022/03/15 08:18:54;;;;;;;;;;;;;;;8.06;100.00;100190.84;5106756;28;19966;-70
2022/03/15 08:21:22;;;;;;;;;;;;;;;8.15;100.00;100189.63;5097622;28;20015;-70
2022/03/15 08:23:50;;;;;;;;;;;;;;;8.17;100.00;100200.44;5107517;28;19951;-70
2022/03/15 08:26:18;;;;;;;;;;;;;;;8.26;100.00;100190.09;5117499;28;19957;-70
2022/03/15 08:28:48;;;;;;;;;;;;;;;8.35;100.00;100191.69;5094478;28;19960;-70
2022/03/15 08:31:16;;;;;;;;;;;;;;;8.44;100.00;100195.22;5100893;28;19959;-70
2022/03/15 08:33:44;;;;;;;;;;;;;;;8.45;100.00;100202.47;5096013;28;19955;-70
2022/03/15 08:36:13;;;;;;;;;;;;;;;8.48;100.00;100198.19;5095472;28;19955;-70
2022/03/15 08:38:41;;;;;;;;;;;;;;;8.55;100.00;100206.81;5094140;28;19948;-70
2022/03/15 08:41:08;;;;;;;;;;;;;;;8.61;100.00;100201.88;5096406;28;19953;-70
2022/03/15 08:43:36;;;;;;;;;;;;;;;8.72;100.00;100211.44;5096291;28;20238;-70
2022/03/15 08:46:04;;;;;;;;;;;;;;;8.70;100.00;100205.41;5094199;27;20227;-70
2022/03/15 08:48:31;;;;;;;;;;;;;;;8.73;100.00;100205.53;5084806;28;19955;-70
2022/03/15 08:51:02;;;;;;;;;;;;;;;8.78;100.00;100204.53;5099076;28;19950;-70
2022/03/15 08:53:33;;;;;;;;;;;;;;;8.83;100.00;100210.69;5081526;28;19962;-70
2022/03/15 08:56:01;;;;;;;;;;;;;;;8.93;100.00;100206.69;5076335;28;19957;-70
2022/03/15 08:58:28;;;;;;;;;;;;;;;9.01;100.00;100212.22;5089355;28;19947;-69
2022/03/15 09:00:56;;;;;;;;;;;;;;;9.06;100.00;100216.75;5096986;28;19948;-68
2022/03/15 09:03:24;;;;;;;;;;;;;;;9.06;100.00;100211.19;5088756;28;19952;-68
2022/03/15 09:05:51;;;;;;;;;;;;;;;9.14;100.00;100218.66;5076471;28;19978;-68
2022/03/15 09:08:22;;;;;;;;;;;;;;;9.27;100.00;100213.97;5075784;28;20324;-68
2022/03/15 09:10:49;;;;;;;;;;;;;;;9.35;100.00;100219.44;5076172;28;20232;-68
2022/03/15 09:13:17;;;;;;;;;;;;;;;9.45;100.00;100216.22;5075950;28;20398;-68
2022/03/15 09:15:45;;;;;;;;;;;;;;;9.53;100.00;100215.34;5058545;28;19942;-68
2022/03/15 09:18:13;;;;;;;;;;;;;;;9.67;100.00;100220.59;5076511;28;19946;-69
2022/03/15 09:20:42;;;;;;;;;;;;;;;9.79;100.00;100224.25;5079630;28;19951;-69
2022/03/15 09:23:10;;;;;;;;;;;;;;;9.80;100.00;100211.09;5096507;28;19944;-68
2022/03/15 09:25:37;;;;;;;;;;;;;;;9.90;100.00;100221.81;5090746;28;19949;-68
2022/03/15 09:28:04;;;;;;;;;;;;;;;10.04;100.00;100227.06;5096162;28;19952;-68
2022/03/15 09:30:32;;;;;;;;;;;;;;;10.23;100.00;100216.97;5088786;28;20242;-68
2022/03/15 09:33:00;;;;;;;;;;;;;;;10.37;100.00;100225.84;5082036;28;19968;-68
2022/03/15 09:35:27;;;;;;;;;;;;;;;10.66;100.00;100226.75;5079769;28;20243;-68
2022/03/15 09:37:55;;;;;;;;;;;;;;;10.77;95.58;100228.72;5076951;28;19956;-68
2022/03/15 09:40:25;;;;;;;;;;;;;;;11.05;95.70;100220.38;5075789;28;19946;-68
2022/03/15 09:42:59;;;;;;;;;;;;;;;11.20;89.03;100217.63;5096501;28;20354;-68
2022/03/15 09:45:31;;;;;;;;;;;;;;;11.37;91.28;100215.72;5095400;28;20061;-68
2022/03/15 09:48:00;;;;;;;;;;;;;;;11.58;88.84;100210.69;5097501;28;19948;-68
2022/03/15 09:50:27;;;;;;;;;;;;;;;11.80;89.47;100201.72;5093514;28;19945;-68
2022/03/15 09:52:56;;;;;;;;;;;;;;;12.05;81.85;100192.00;5093217;28;19963;-68
2022/03/15 09:55:25;;;;;;;;;;;;;;;11.97;81.88;100181.75;5093912;28;19949;-68
2022/03/15 09:57:53;;;;;;;;;;;;;;;11.88;82.77;100181.91;5095843;28;19950;-68
2022/03/15 10:00:20;;;;;;;;;;;;;;;12.03;82.15;100176.72;5101000;28;19950;-68
2022/03/15 10:02:48;;;;;;;;;;;;;;;11.96;82.19;100185.72;5095467;28;19955;-69
2022/03/15 10:05:16;;;;;;;;;;;;;;;11.94;85.47;100187.25;5095212;28;19952;-69
2022/03/15 10:07:43;;;;;;;;;;;;;;;11.88;85.83;100184.72;5096360;28;19943;-69
2022/03/15 10:10:13;;;;;;;;;;;;;;;12.17;85.99;100177.88;5096200;28;19951;-69
2022/03/15 10:12:40;;;;;;;;;;;;;;;12.44;86.73;100174.13;5096244;28;20004;-69
2022/03/15 10:15:19;;;;;;;;;;;;;;;12.48;84.14;100177.00;5088812;28;19947;-69
2022/03/15 10:17:48;;;;;;;;;;;;;;;12.46;83.14;100177.38;5092244;28;19955;-69
2022/03/15 10:20:18;;;;;;;;;;;;;;;12.46;81.66;100171.78;5078679;28;19959;-69
2022/03/15 10:22:51;;;;;;;;;;;;;;;12.49;80.23;100171.00;5092421;28;19955;-68
2022/03/15 10:25:21;;;;;;;;;;;;;;;12.70;81.17;100170.69;5114011;28;19951;-68
2022/03/15 10:27:55;;;;;;;;;;;;;;;12.81;79.53;100170.94;5080912;28;19961;-68
2022/03/15 10:30:23;;;;;;;;;;;;;;;12.74;80.20;100156.75;5075499;28;19941;-68
2022/03/15 10:32:51;;;;;;;;;;;;;;;12.85;79.56;100144.56;5075132;28;19975;-68
2022/03/15 10:35:26;;;;;;;;;;;;;;;12.81;81.48;100140.88;5075272;28;19953;-68
2022/03/15 10:37:55;;;;;;;;;;;;;;;12.75;81.69;100144.34;5074824;28;19945;-68
2022/03/15 10:40:33;;;;;;;;;;;;;;;12.54;83.49;100139.06;5075346;28;19943;-68
2022/03/15 10:43:08;;;;;;;;;;;;;;;12.43;81.27;100135.19;5083392;28;20240;-68
2022/03/15 10:45:37;;;;;;;;;;;;;;;12.62;81.32;100134.44;5093445;28;19948;-69
2022/03/15 10:48:19;;;;;;;;;;;;;;;12.40;82.58;100127.50;5097398;28;19942;-68
2022/03/15 10:50:54;;;;;;;;;;;;;;;12.13;84.49;100132.09;5095045;28;19955;-68
2022/03/15 10:53:26;;;;;;;;;;;;;;;12.18;84.07;100126.19;5095689;28;19960;-68
2022/03/15 10:56:13;;;;;;;;;;;;;;;11.99;86.11;100125.31;5095390;28;19950;-68
2022/03/15 10:58:47;;;;;;;;;;;;;;;12.43;83.21;100123.97;5092412;28;20649;-68
2022/03/15 11:01:19;;;;;;;;;;;;;;;12.44;84.06;100129.25;5091907;28;19946;-68
2022/03/15 11:03:56;;;;;;;;;;;;;;;12.46;83.54;100129.69;5099424;28;19955;-68
2022/03/15 11:06:35;;;;;;;;;;;;;;;12.66;84.45;100119.31;5098899;28;19943;-68
2022/03/15 11:09:13;;;;;;;;;;;;;;;12.56;85.31;100119.06;5098856;28;19946;-68
2022/03/15 11:11:42;;;;;;;;;;;;;;;12.10;86.22;100116.00;5097841;28;20381;-68
2022/03/15 11:14:10;;;;;;;;;;;;;;;12.30;85.63;100109.25;5097645;28;19976;-68
2022/03/15 11:16:38;;;;;;;;;;;;;;;12.09;86.70;100105.97;5098541;28;19960;-68
2022/03/15 11:19:05;;;;;;;;;;;;;;;12.26;87.93;100102.75;5098455;28;19952;-69
2022/03/15 11:21:34;;;;;;;;;;;;;;;12.01;85.66;100098.53;5098647;28;19958;-69
2022/03/15 11:24:02;;;;;;;;;;;;;;;11.38;88.89;100099.69;5098472;28;19951;-69
2022/03/15 11:26:31;;;;;;;;;;;;;;;11.55;89.79;100094.56;5098550;28;19947;-69
2022/03/15 11:28:59;;;;;;;;;;;;;;;11.54;89.96;100095.72;5095002;28;19945;-69
2022/03/15 11:31:27;;;;;;;;;;;;;;;11.64;92.61;100088.78;5097379;28;20249;-69
2022/03/15 11:33:55;;;;;;;;;;;;;;;12.01;91.96;100095.75;5091009;28;19970;-69
2022/03/15 11:36:23;;;;;;;;;;;;;;;11.84;91.16;100090.50;5078168;28;19943;-69
2022/03/15 11:38:52;;;;;;;;;;;;;;;11.78;91.75;100091.97;5083137;28;19957;-68
2022/03/15 11:41:21;;;;;;;;;;;;;;;11.88;90.03;100090.63;5097830;28;19952;-68
2022/03/15 11:44:01;;;;;;;;;;;;;;;11.95;91.79;100077.59;5097826;28;20244;-68
2022/03/15 11:46:43;;;;;;;;;;;;;;;12.09;90.77;100080.72;5098376;28;19945;-68
2022/03/15 11:49:11;;;;;;;;;;;;;;;12.08;89.56;100070.66;5098197;28;19953;-68
2022/03/15 11:51:39;;;;;;;;;;;;;;;11.84;90.51;100077.31;5098657;28;19943;-68
2022/03/15 11:54:19;;;;;;;;;;;;;;;11.84;91.36;100071.72;5097918;28;19971;-68
2022/03/15 11:56:49;;;;;;;;;;;;;;;11.77;95.91;100067.91;5094707;28;19944;-68
2022/03/15 11:59:17;;;;;;;;;;;;;;;11.92;92.64;100064.28;5084548;28;19945;-68
2022/03/15 12:01:52;;;;;;;;;;;;;;;11.91;92.08;100059.06;5077002;28;19962;-68
2022/03/15 12:04:23;;;;;;;;;;;;;;;11.90;95.04;100052.63;5084677;28;19960;-69
2022/03/15 12:06:55;;;;;;;;;;;;;;;12.02;91.04;100057.31;5097928;28;20329;-69
2022/03/15 12:09:30;;;;;;;;;;;;;;;12.03;93.07;100056.13;5097913;28;19951;-69
2022/03/15 12:12:09;;;;;;;;;;;;;;;11.83;94.34;100052.47;5097957;28;19962;-69
2022/03/15 12:14:40;;;;;;;;;;;;;;;12.10;93.57;100045.91;5097279;28;19963;-69
2022/03/15 12:17:10;;;;;;;;;;;;;;;12.28;93.38;100035.06;5097103;28;19948;-69
2022/03/15 12:19:41;;;;;;;;;;;;;;;12.34;91.35;100037.22;5093529;28;20030;-69
2022/03/15 12:22:10;;;;;;;;;;;;;;;12.48;92.76;100033.91;5097198;28;19951;-69
2022/03/15 12:24:39;;;;;;;;;;;;;;;12.60;91.04;100032.94;5097579;28;19948;-69
2022/03/15 12:27:10;;;;;;;;;;;;;;;12.50;90.40;100029.53;5097440;28;20251;-69
2022/03/15 12:29:37;;;;;;;;;;;;;;;12.58;92.42;100015.66;5097612;28;19946;-69
2022/03/15 12:32:11;;;;;;;;;;;;;;;12.32;91.46;100014.31;5079605;28;20334;-69
2022/03/15 12:34:40;;;;;;;;;;;;;;;12.51;93.01;100005.13;5096696;28;20252;-69
2022/03/15 12:37:07;;;;;;;;;;;;;;;12.42;91.95;100005.31;5091716;28;19955;-69
2022/03/15 12:39:36;;;;;;;;;;;;;;;12.28;92.16;99998.59;5089034;28;19948;-69
2022/03/15 12:42:07;;;;;;;;;;;;;;;12.12;94.38;100012.69;5095653;28;20496;-69
2022/03/15 12:44:42;;;;;;;;;;;;;;;12.16;92.95;100005.16;5097174;28;20564;-69
2022/03/15 12:47:15;;;;;;;;;;;;;;;12.13;94.19;100005.09;5096595;28;19955;-69
2022/03/15 12:50:03;;;;;;;;;;;;;;;12.20;94.46;99999.66;5096788;28;19953;-69
2022/03/15 12:52:39;;;;;;;;;;;;;;;11.96;93.45;99986.69;5096809;28;19995;-70
2022/03/15 12:55:15;;;;;;;;;;;;;;;12.01;93.98;99974.34;5096912;28;20278;-70
2022/03/15 12:57:44;;;;;;;;;;;;;;;12.08;94.26;99968.94;5094477;28;19948;-70
2022/03/15 13:00:14;;;;;;;;;;;;;;;12.17;93.95;99973.16;5091924;28;20225;-69
2022/03/15 13:02:42;;;;;;;;;;;;;;;12.27;93.89;99966.94;5092680;28;19947;-69
2022/03/15 13:05:16;;;;;;;;;;;;;;;12.33;91.66;99968.25;5093582;28;19958;-69
2022/03/15 13:07:47;;;;;;;;;;;;;;;12.15;94.55;99961.47;5094752;28;19944;-69
2022/03/15 13:10:15;;;;;;;;;;;;;;;12.16;95.38;99960.28;5095905;28;19968;-69
2022/03/15 13:12:43;;;;;;;;;;;;;;;12.19;94.59;99961.53;5093439;28;19967;-69
2022/03/15 13:15:19;;;;;;;;;;;;;;;12.27;95.05;99955.75;5095756;28;19971;-69
2022/03/15 13:17:47;;;;;;;;;;;;;;;12.23;93.50;99943.59;5095850;28;19955;-69
2022/03/15 13:20:26;;;;;;;;;;;;;;;12.15;94.31;99933.41;5095470;28;19973;-69
2022/03/15 13:23:00;;;;;;;;;;;;;;;12.12;94.78;99930.56;5094114;28;19944;-69
2022/03/15 13:25:48;;;;;;;;;;;;;;;12.10;94.28;99933.75;5091466;28;19955;-69
2022/03/15 13:28:15;;;;;;;;;;;;;;;12.21;94.19;99931.94;5093869;28;19954;-69
2022/03/15 13:30:43;;;;;;;;;;;;;;;12.23;93.80;99923.97;5095485;28;19944;-70
2022/03/15 13:33:24;;;;;;;;;;;;;;;12.35;95.02;99935.03;5095980;28;19947;-69
2022/03/15 13:35:57;;;;;;;;;;;;;;;12.53;93.45;99932.59;5093988;28;19960;-69
2022/03/15 13:38:25;;;;;;;;;;;;;;;12.56;91.88;99928.22;5095746;28;19951;-69
2022/03/15 13:40:52;;;;;;;;;;;;;;;12.44;91.14;99924.44;5095022;28;19956;-69
2022/03/15 13:43:22;;;;;;;;;;;;;;;12.38;91.40;99920.28;5095637;28;19947;-69
2022/03/15 13:45:50;;;;;;;;;;;;;;;12.39;91.23;99926.72;5091722;28;19952;-69
2022/03/15 13:48:30;;;;;;;;;;;;;;;12.32;92.54;99912.53;5095575;28;19947;-70
2022/03/15 13:51:04;;;;;;;;;;;;;;;12.45;91.74;99923.22;5093194;28;19952;-69
2022/03/15 13:53:31;;;;;;;;;;;;;;;12.42;92.46;99918.34;5095296;28;20245;-69
2022/03/15 13:56:10;;;;;;;;;;;;;;;12.29;93.48;99918.88;5095738;28;19965;-69
2022/03/15 13:58:38;;;;;;;;;;;;;;;12.38;92.73;99914.66;5095861;28;19953;-69
2022/03/15 14:01:07;;;;;;;;;;;;;;;12.48;91.74;99918.88;5095671;28;20244;-69
2022/03/15 14:03:36;;;;;;;;;;;;;;;12.50;89.93;99911.69;5091943;28;19946;-69
2022/03/15 14:06:07;;;;;;;;;;;;;;;12.39;92.48;99909.88;5095632;28;19953;-69
2022/03/15 14:08:44;;;;;;;;;;;;;;;12.45;91.66;99912.00;5088618;28;19946;-69
2022/03/15 14:11:12;;;;;;;;;;;;;;;12.37;92.27;99904.63;5092641;28;19970;-69
2022/03/15 14:13:56;;;;;;;;;;;;;;;12.38;94.61;99909.06;5090767;28;19953;-69
2022/03/15 14:16:41;;;;;;;;;;;;;;;12.42;93.29;99901.50;5087566;28;19954;-69
2022/03/15 14:19:14;;;;;;;;;;;;;;;12.44;92.45;99899.19;5074568;28;20331;-70
2022/03/15 14:21:42;;;;;;;;;;;;;;;12.49;93.16;99893.22;5089556;28;19949;-69
2022/03/15 14:24:21;;;;;;;;;;;;;;;12.47;90.93;99894.81;5093942;28;19944;-69
2022/03/15 14:26:49;;;;;;;;;;;;;;;12.49;91.68;99895.25;5081845;28;19951;-69
2022/03/15 14:29:20;;;;;;;;;;;;;;;12.49;92.77;99892.44;5087767;28;20234;-69
2022/03/15 14:32:01;;;;;;;;;;;;;;;12.39;92.88;99891.06;5097861;28;19947;-69
2022/03/15 14:34:30;;;;;;;;;;;;;;;12.36;94.80;99885.38;5103238;28;19965;-69
2022/03/15 14:37:06;;;;;;;;;;;;;;;12.27;94.90;99882.00;5103334;28;19944;-69
2022/03/15 14:39:35;;;;;;;;;;;;;;;12.23;96.98;99879.09;5103875;28;20352;-69
2022/03/15 14:42:06;;;;;;;;;;;;;;;12.35;94.25;99872.50;5119729;28;20257;-69
2022/03/15 14:44:35;;;;;;;;;;;;;;;12.32;95.61;99870.47;5095583;28;19951;-70
2022/03/15 14:47:06;;;;;;;;;;;;;;;12.23;95.23;99858.66;5098081;28;20006;-69
2022/03/15 14:49:33;;;;;;;;;;;;;;;12.19;95.31;99867.00;5100852;28;19949;-69
2022/03/15 14:52:02;;;;;;;;;;;;;;;12.12;95.52;99861.28;5099772;28;19945;-69
2022/03/15 14:54:30;;;;;;;;;;;;;;;12.06;95.67;99856.31;5113739;28;20372;-69
2022/03/15 14:57:04;;;;;;;;;;;;;;;11.92;95.99;99859.66;5090177;28;20338;-69
2022/03/15 14:59:33;;;;;;;;;;;;;;;11.92;96.29;99851.25;5098231;28;19946;-69
2022/03/15 15:02:01;;;;;;;;;;;;;;;11.91;96.70;99852.41;5097451;28;20242;-69
2022/03/15 15:04:30;;;;;;;;;;;;;;;11.91;96.08;99848.81;5096368;28;19948;-69
2022/03/15 15:07:12;;;;;;;;;;;;;;;11.76;97.07;99859.72;5103570;28;20229;-69
2022/03/15 15:09:39;;;;;;;;;;;;;;;11.72;98.01;99858.84;5103372;28;19949;-69
2022/03/15 15:12:13;;;;;;;;;;;;;;;11.73;96.57;99865.25;5093221;28;19971;-69
2022/03/15 15:14:51;;;;;;;;;;;;;;;11.72;97.16;99863.63;5091848;28;20232;-69
2022/03/15 15:17:20;;;;;;;;;;;;;;;11.82;97.80;99851.81;5094406;28;20337;-69
2022/03/15 15:19:53;;;;;;;;;;;;;;;11.78;98.51;99857.38;5099577;28;19945;-69
2022/03/15 15:22:24;;;;;;;;;;;;;;;11.81;97.49;99855.81;5106383;28;19944;-69
2022/03/15 15:24:54;;;;;;;;;;;;;;;11.75;96.76;99844.09;5092358;28;19951;-69
2022/03/15 15:27:22;;;;;;;;;;;;;;;11.77;97.29;99846.50;5105342;28;19950;-69
2022/03/15 15:29:52;;;;;;;;;;;;;;;11.80;97.67;99860.63;5113332;28;20228;-69
2022/03/15 15:32:20;;;;;;;;;;;;;;;11.75;97.88;99858.09;5102922;28;20434;-69
2022/03/15 15:34:49;;;;;;;;;;;;;;;11.72;97.55;99853.22;5094115;28;19967;-69
2022/03/15 15:37:17;;;;;;;;;;;;;;;11.72;97.90;99846.81;5087402;28;19943;-69
2022/03/15 15:39:47;;;;;;;;;;;;;;;11.71;98.24;99843.19;5093761;28;19944;-69
2022/03/15 15:42:17;;;;;;;;;;;;;;;11.67;97.32;99847.88;5111420;28;20235;-69
2022/03/15 15:44:46;;;;;;;;;;;;;;;11.73;97.00;99842.84;5104472;28;20235;-69
2022/03/15 15:47:15;;;;;;;;;;;;;;;11.69;97.22;99842.75;5110671;28;19945;-69
2022/03/15 15:49:43;;;;;;;;;;;;;;;11.80;96.93;99834.56;5111542;28;19974;-69
2022/03/15 15:52:15;;;;;;;;;;;;;;;11.81;97.18;99831.38;5089749;28;19947;-69
2022/03/15 15:54:44;;;;;;;;;;;;;;;11.79;96.76;99828.16;5103487;28;20041;-69
2022/03/15 15:57:17;;;;;;;;;;;;;;;11.73;97.46;99845.63;5110603;28;19955;-69
2022/03/15 15:59:45;;;;;;;;;;;;;;;11.73;97.04;99838.03;5098665;28;20329;-69
2022/03/15 16:02:14;;;;;;;;;;;;;;;11.62;97.93;99833.34;5099375;28;19944;-69
2022/03/15 16:04:41;;;;;;;;;;;;;;;11.53;98.07;99824.34;5112836;28;19949;-69
2022/03/15 16:07:27;;;;;;;;;;;;;;;11.45;97.97;99817.78;5098851;28;19950;-69
2022/03/15 16:09:55;;;;;;;;;;;;;;;11.36;99.21;99813.56;5088783;28;19944;-69
2022/03/15 16:12:24;;;;;;;;;;;;;;;11.36;99.60;99814.38;5095078;28;19969;-69
2022/03/15 16:14:51;;;;;;;;;;;;;;;11.28;100.00;99811.78;5097219;28;19959;-70
2022/03/15 16:17:19;;;;;;;;;;;;;;;11.22;100.00;99809.25;5090782;28;19954;-69
2022/03/15 16:19:47;;;;;;;;;;;;;;;11.12;100.00;99804.25;5102220;28;19960;-69
2022/03/15 16:22:15;;;;;;;;;;;;;;;11.14;100.00;99806.69;5091468;28;19950;-69
2022/03/15 16:24:44;;;;;;;;;;;;;;;11.18;100.00;99808.38;5105319;28;19949;-69
2022/03/15 16:27:12;;;;;;;;;;;;;;;11.13;100.00;99810.63;5095066;28;19954;-68
2022/03/15 16:29:39;;;;;;;;;;;;;;;11.09;100.00;99802.19;5102763;28;19943;-69
2022/03/15 16:32:15;;;;;;;;;;;;;;;11.01;100.00;99797.59;5115114;28;19948;-69
2022/03/15 16:34:43;;;;;;;;;;;;;;;10.99;100.00;99794.34;5087047;28;20236;-69
2022/03/15 16:37:10;;;;;;;;;;;;;;;10.97;100.00;99802.28;5109687;28;20122;-69
2022/03/15 16:39:38;;;;;;;;;;;;;;;10.93;100.00;99806.19;5110376;28;19961;-69
2022/03/15 16:42:05;;;;;;;;;;;;;;;10.88;100.00;99814.88;5101625;28;19943;-69
2022/03/15 16:44:32;;;;;;;;;;;;;;;10.83;100.00;99803.94;5107365;28;19966;-69
2022/03/15 16:47:02;;;;;;;;;;;;;;;10.74;100.00;99804.13;5111596;28;19945;-70
2022/03/15 16:49:32;;;;;;;;;;;;;;;10.66;100.00;99810.72;5109868;28;19952;-70
2022/03/15 16:51:59;;;;;;;;;;;;;;;10.59;100.00;99809.75;5103276;28;19953;-69
2022/03/15 16:54:27;;;;;;;;;;;;;;;10.47;100.00;99800.25;5108918;28;19951;-69
2022/03/15 16:56:54;;;;;;;;;;;;;;;10.36;100.00;99795.56;5096325;28;19963;-69
2022/03/15 16:59:22;;;;;;;;;;;;;;;10.35;100.00;99803.13;5107687;28;19957;-69
2022/03/15 17:01:49;;;;;;;;;;;;;;;10.29;100.00;99803.78;5105942;28;20240;-69
2022/03/15 17:07:04;;;;;;;;;;;;;;;10.18;100.00;99791.47;5091496;28;19944;-69
2022/03/15 17:09:31;;;;;;;;;;;;;;;10.16;100.00;99777.06;5090976;28;19954;-69
2022/03/15 17:12:04;;;;;;;;;;;;;;;10.10;100.00;99776.47;5095049;27;20354;-69
2022/03/15 17:14:33;;;;;;;;;;;;;;;10.02;100.00;99771.88;5103794;28;20323;-69
2022/03/15 17:17:03;;;;;;;;;;;;;;;9.97;100.00;99774.13;5101580;28;20408;-69
2022/03/15 17:19:31;;;;;;;;;;;;;;;9.93;100.00;99771.22;5113108;28;19949;-69
2022/03/15 17:22:00;;;;;;;;;;;;;;;9.93;100.00;99769.25;5097493;28;20353;-69
2022/03/15 17:24:32;;;;;;;;;;;;;;;9.89;100.00;99767.53;5097933;28;19947;-69
2022/03/15 17:27:00;;;;;;;;;;;;;;;9.81;100.00;99769.31;5097303;28;19956;-69
2022/03/15 17:29:27;;;;;;;;;;;;;;;9.81;100.00;99771.28;5111926;28;19943;-69
2022/03/15 17:31:55;;;;;;;;;;;;;;;9.81;100.00;99779.66;5102224;28;19946;-69
2022/03/15 17:34:23;;;;;;;;;;;;;;;9.80;100.00;99770.50;5089031;28;20340;-69
2022/03/15 17:36:57;;;;;;;;;;;;;;;9.77;100.00;99774.00;5112764;28;19974;-69
2022/03/15 17:39:25;;;;;;;;;;;;;;;9.73;100.00;99775.84;5096969;28;20070;-69
2022/03/15 17:41:56;;;;;;;;;;;;;;;9.70;100.00;99773.81;5094373;28;19953;-69
2022/03/15 17:44:24;;;;;;;;;;;;;;;9.65;100.00;99773.25;5099724;28;19953;-69
2022/03/15 17:46:54;;;;;;;;;;;;;;;9.61;100.00;99777.94;5099609;28;19942;-69
2022/03/15 17:49:24;;;;;;;;;;;;;;;9.61;100.00;99780.72;5101649;28;19955;-69
2022/03/15 17:51:51;;;;;;;;;;;;;;;9.60;100.00;99774.31;5109348;28;19983;-69
2022/03/15 17:54:29;;;;;;;;;;;;;;;9.58;100.00;99768.28;5094107;28;19946;-69
2022/03/15 17:57:03;;;;;;;;;;;;;;;9.57;100.00;99780.59;5097407;28;19969;-69
2022/03/15 17:59:31;;;;;;;;;;;;;;;9.56;100.00;99775.38;5097157;28;19954;-69
2022/03/15 18:01:59;;;;;;;;;;;;;;;9.52;100.00;99766.88;5108620;28;19949;-69
2022/03/15 18:04:33;;;;;;;;;;;;;;;9.52;100.00;99761.31;5094438;28;19945;-69
2022/03/15 18:07:02;;;;;;;;;;;;;;;9.46;100.00;99768.31;5096919;28;19957;-69
2022/03/15 18:09:29;;;;;;;;;;;;;;;9.40;100.00;99778.09;5097585;28;19946;-69
2022/03/15 18:11:59;;;;;;;;;;;;;;;9.39;100.00;99767.31;5106413;28;19965;-69